createdAt,value
2023-04-10T00:00:43.502Z,19.30
2023-04-10T00:01:43.580Z,19.50
2023-04-10T00:02:43.582Z,19.40
2023-04-10T00:03:43.735Z,19.00
2023-04-10T00:04:44.843Z,19.10
2023-04-10T00:05:43.464Z,19.30
2023-04-10T00:06:43.464Z,19.40
2023-04-10T00:07:43.450Z,19.90
2023-04-10T00:08:43.482Z,19.40
2023-04-10T00:09:43.438Z,19.00
2023-04-10T00:10:43.454Z,18.90
2023-04-10T00:11:43.408Z,19.50
2023-04-10T00:12:43.374Z,19.30
2023-04-10T00:13:43.418Z,19.30
2023-04-10T00:14:43.403Z,19.30
2023-04-10T00:15:43.346Z,20.40
2023-04-10T00:16:43.383Z,19.60
2023-04-10T00:17:43.358Z,19.50
2023-04-10T00:18:43.375Z,19.60
2023-04-10T00:19:43.351Z,20.40
2023-04-10T00:20:43.291Z,20.20
2023-04-10T00:21:43.330Z,19.80
2023-04-10T00:22:43.274Z,21.10
2023-04-10T00:23:43.292Z,19.70
2023-04-10T00:24:43.252Z,19.60
2023-04-10T00:25:43.251Z,19.90
2023-04-10T00:26:43.222Z,21.10
2023-04-10T00:27:43.252Z,20.40
2023-04-10T00:28:43.228Z,19.70
2023-04-10T00:29:43.299Z,20.60
2023-04-10T00:30:43.203Z,19.50
2023-04-10T00:31:43.206Z,19.90
2023-04-10T00:32:43.236Z,19.60
2023-04-10T00:33:43.191Z,19.90
2023-04-10T00:34:43.154Z,19.80
2023-04-10T00:35:43.309Z,19.90
2023-04-10T00:36:43.135Z,19.80
2023-04-10T00:37:43.101Z,19.90
2023-04-10T00:38:43.138Z,19.90
2023-04-10T00:39:43.088Z,19.40
2023-04-10T00:40:43.117Z,20.10
2023-04-10T00:41:43.076Z,20.00
2023-04-10T00:42:43.058Z,19.40
2023-04-10T00:43:43.062Z,19.50
2023-04-10T00:44:43.036Z,19.80
2023-04-10T00:45:43.070Z,20.40
2023-04-10T00:46:43.045Z,19.60
2023-04-10T00:47:43.031Z,20.00
2023-04-10T00:48:43.015Z,19.60
2023-04-10T00:49:42.997Z,20.10
2023-04-10T00:50:42.978Z,19.70
2023-04-10T00:51:43.029Z,19.60
2023-04-10T00:52:42.998Z,19.80
2023-04-10T00:53:42.932Z,19.80
2023-04-10T00:54:42.948Z,19.60
2023-04-10T00:55:42.932Z,20.20
2023-04-10T00:56:42.979Z,20.00
2023-04-10T00:57:42.929Z,19.40
2023-04-10T00:58:42.925Z,19.80
2023-04-10T00:59:42.870Z,19.80
2023-04-10T01:00:42.909Z,21.60
2023-04-10T01:01:43.070Z,20.60
2023-04-10T01:02:43.043Z,20.80
2023-04-10T01:03:42.966Z,21.10
2023-04-10T01:04:42.870Z,21.70
2023-04-10T01:05:42.807Z,20.60
2023-04-10T01:06:42.803Z,21.20
2023-04-10T01:07:42.791Z,21.30
2023-04-10T01:08:42.796Z,21.50
2023-04-10T01:09:42.772Z,20.90
2023-04-10T01:10:42.814Z,20.60
2023-04-10T01:11:42.735Z,20.90
2023-04-10T01:12:42.744Z,20.90
2023-04-10T01:13:42.780Z,21.20
2023-04-10T01:14:42.783Z,21.60
2023-04-10T01:15:42.726Z,20.90
2023-04-10T01:16:42.831Z,21.30
2023-04-10T01:17:42.700Z,21.30
2023-04-10T01:18:42.692Z,20.70
2023-04-10T01:19:42.705Z,20.60
2023-04-10T01:20:42.651Z,21.50
2023-04-10T01:21:42.599Z,20.50
2023-04-10T01:22:42.633Z,21.20
2023-04-10T01:23:42.616Z,21.20
2023-04-10T01:24:42.608Z,20.80
2023-04-10T01:25:42.597Z,20.00
2023-04-10T01:26:42.549Z,19.00
2023-04-10T01:27:42.550Z,19.70
2023-04-10T01:28:42.611Z,18.80
2023-04-10T01:29:44.192Z,19.60
2023-04-10T01:30:42.570Z,19.00
2023-04-10T01:31:42.490Z,18.70
2023-04-10T01:32:42.600Z,19.50
2023-04-10T01:33:42.495Z,18.80
2023-04-10T01:34:42.559Z,18.10
2023-04-10T01:35:42.482Z,18.10
2023-04-10T01:36:42.427Z,18.50
2023-04-10T01:37:42.444Z,19.60
2023-04-10T01:38:42.475Z,18.50
2023-04-10T01:39:42.457Z,18.30
2023-04-10T01:40:42.436Z,18.70
2023-04-10T01:41:42.447Z,17.30
2023-04-10T01:42:44.306Z,18.50
2023-04-10T01:43:42.427Z,18.20
2023-04-10T01:44:42.418Z,18.50
2023-04-10T01:45:42.375Z,18.20
2023-04-10T01:46:42.399Z,17.70
2023-04-10T01:47:42.404Z,17.30
2023-04-10T01:48:42.360Z,17.80
2023-04-10T01:49:42.306Z,17.70
2023-04-10T01:50:42.291Z,17.50
2023-04-10T01:51:42.288Z,17.60
2023-04-10T01:52:42.266Z,17.70
2023-04-10T01:53:42.275Z,17.30
2023-04-10T01:54:42.289Z,17.60
2023-04-10T01:55:42.238Z,17.20
2023-04-10T01:56:42.228Z,17.20
2023-04-10T01:57:42.240Z,16.50
2023-04-10T01:58:42.203Z,16.90
2023-04-10T01:59:42.210Z,17.00
2023-04-10T02:00:42.214Z,16.70
2023-04-10T02:01:42.246Z,16.60
2023-04-10T02:02:42.260Z,17.00
2023-04-10T02:03:42.262Z,16.10
2023-04-10T02:04:42.172Z,16.90
2023-04-10T02:05:42.120Z,16.00
2023-04-10T02:06:42.164Z,16.80
2023-04-10T02:07:42.096Z,15.70
2023-04-10T02:08:42.100Z,16.40
2023-04-10T02:09:42.116Z,16.70
2023-04-10T02:10:42.081Z,16.30
2023-04-10T02:11:42.094Z,17.10
2023-04-10T02:12:42.126Z,16.50
2023-04-10T02:13:42.073Z,16.50
2023-04-10T02:14:42.049Z,16.70
2023-04-10T02:15:42.090Z,16.30
2023-04-10T02:16:42.050Z,16.40
2023-04-10T02:17:42.050Z,16.10
2023-04-10T02:18:42.019Z,15.90
2023-04-10T02:19:41.998Z,16.30
2023-04-10T02:20:41.978Z,16.10
2023-04-10T02:21:42.000Z,16.50
2023-04-10T02:22:41.982Z,17.40
2023-04-10T02:23:41.946Z,16.40
2023-04-10T02:24:41.945Z,17.60
2023-04-10T02:25:41.931Z,17.00
2023-04-10T02:26:41.910Z,17.10
2023-04-10T02:27:41.926Z,16.80
2023-04-10T02:28:41.927Z,18.30
2023-04-10T02:29:41.951Z,19.00
2023-04-10T02:30:41.893Z,21.60
2023-04-10T02:31:41.962Z,24.20
2023-04-10T02:32:41.913Z,22.00
2023-04-10T02:33:41.882Z,21.60
2023-04-10T02:34:41.838Z,19.50
2023-04-10T02:35:41.888Z,18.50
2023-04-10T02:36:41.884Z,19.40
2023-04-10T02:37:41.805Z,17.70
2023-04-10T02:38:41.800Z,18.40
2023-04-10T02:39:41.812Z,19.00
2023-04-10T02:40:41.787Z,18.80
2023-04-10T02:41:41.797Z,19.30
2023-04-10T02:42:41.777Z,18.40
2023-04-10T02:43:41.768Z,19.20
2023-04-10T02:44:41.724Z,19.70
2023-04-10T02:45:41.836Z,20.20
2023-04-10T02:46:41.753Z,19.00
2023-04-10T02:47:41.790Z,18.90
2023-04-10T02:48:41.713Z,18.20
2023-04-10T02:49:41.684Z,18.70
2023-04-10T02:50:41.675Z,18.00
2023-04-10T02:51:41.673Z,18.30
2023-04-10T02:52:41.655Z,18.70
2023-04-10T02:53:41.651Z,18.20
2023-04-10T02:54:41.654Z,18.10
2023-04-10T02:55:41.630Z,18.00
2023-04-10T02:56:41.644Z,17.70
2023-04-10T02:57:41.605Z,18.00
2023-04-10T02:58:41.576Z,17.70
2023-04-10T02:59:41.587Z,17.90
2023-04-10T03:00:41.581Z,16.90
2023-04-10T03:01:41.619Z,17.40
2023-04-10T03:02:41.718Z,17.00
2023-04-10T03:03:41.600Z,17.10
2023-04-10T03:04:41.575Z,16.90
2023-04-10T03:05:41.517Z,17.40
2023-04-10T03:06:41.508Z,17.40
2023-04-10T03:07:41.675Z,18.20
2023-04-10T03:08:41.482Z,18.00
2023-04-10T03:09:41.514Z,17.90
2023-04-10T03:10:41.460Z,17.50
2023-04-10T03:11:41.461Z,17.80
2023-04-10T03:12:41.457Z,18.10
2023-04-10T03:13:41.460Z,18.40
2023-04-10T03:14:41.452Z,17.80
2023-04-10T03:15:41.397Z,17.10
2023-04-10T03:16:41.458Z,17.70
2023-04-10T03:17:41.413Z,17.70
2023-04-10T03:18:41.391Z,17.60
2023-04-10T03:19:41.355Z,18.00
2023-04-10T03:20:42.598Z,18.30
2023-04-10T03:21:41.333Z,17.70
2023-04-10T03:22:41.325Z,18.60
2023-04-10T03:23:41.497Z,17.40
2023-04-10T03:24:41.314Z,18.10
2023-04-10T03:25:41.296Z,18.50
2023-04-10T03:26:41.304Z,18.60
2023-04-10T03:27:41.277Z,18.30
2023-04-10T03:28:41.278Z,17.80
2023-04-10T03:29:41.275Z,18.70
2023-04-10T03:30:41.254Z,18.60
2023-04-10T03:31:41.326Z,19.50
2023-04-10T03:32:41.225Z,18.40
2023-04-10T03:33:41.222Z,18.10
2023-04-10T03:34:41.225Z,18.90
2023-04-10T03:35:41.227Z,18.50
2023-04-10T03:36:41.171Z,18.50
2023-04-10T03:37:41.160Z,19.20
2023-04-10T03:38:41.206Z,18.80
2023-04-10T03:39:41.193Z,19.20
2023-04-10T03:40:41.113Z,19.20
2023-04-10T03:41:41.131Z,18.90
2023-04-10T03:42:41.103Z,18.90
2023-04-10T03:43:41.080Z,18.50
2023-04-10T03:44:41.118Z,19.00
2023-04-10T03:45:41.084Z,19.30
2023-04-10T03:46:41.048Z,18.60
2023-04-10T03:47:41.115Z,18.70
2023-04-10T03:48:41.040Z,18.60
2023-04-10T03:49:41.042Z,19.20
2023-04-10T03:50:41.047Z,19.20
2023-04-10T03:51:40.992Z,18.10
2023-04-10T03:52:40.991Z,18.50
2023-04-10T03:53:41.017Z,17.90
2023-04-10T03:54:41.001Z,18.60
2023-04-10T03:55:40.988Z,18.20
2023-04-10T03:56:40.946Z,18.50
2023-04-10T03:57:40.985Z,17.30
2023-04-10T03:58:40.942Z,18.20
2023-04-10T03:59:40.977Z,17.80
2023-04-10T04:00:40.936Z,17.40
2023-04-10T04:01:40.919Z,18.40
2023-04-10T04:02:41.055Z,18.30
2023-04-10T04:03:41.138Z,17.70
2023-04-10T04:04:40.973Z,17.90
2023-04-10T04:05:40.845Z,18.10
2023-04-10T04:06:40.871Z,17.90
2023-04-10T04:07:40.879Z,17.70
2023-04-10T04:08:40.816Z,17.90
2023-04-10T04:09:40.840Z,17.80
2023-04-10T04:10:40.790Z,17.70
2023-04-10T04:11:40.789Z,17.30
2023-04-10T04:12:40.772Z,17.60
2023-04-10T04:13:40.756Z,16.60
2023-04-10T04:14:40.779Z,17.30
2023-04-10T04:15:40.741Z,17.50
2023-04-10T04:16:40.791Z,17.40
2023-04-10T04:17:40.778Z,17.10
2023-04-10T04:18:40.716Z,16.90
2023-04-10T04:19:40.772Z,17.10
2023-04-10T04:20:40.666Z,16.90
2023-04-10T04:21:40.689Z,17.40
2023-04-10T04:22:40.687Z,16.80
2023-04-10T04:23:40.669Z,17.10
2023-04-10T04:24:40.680Z,17.00
2023-04-10T04:25:40.724Z,16.50
2023-04-10T04:26:40.639Z,16.10
2023-04-10T04:27:40.616Z,16.70
2023-04-10T04:28:40.637Z,16.90
2023-04-10T04:29:40.582Z,16.30
2023-04-10T04:30:40.588Z,16.90
2023-04-10T04:31:40.615Z,17.20
2023-04-10T04:32:40.594Z,16.70
2023-04-10T04:33:40.599Z,16.90
2023-04-10T04:34:41.320Z,16.50
2023-04-10T04:35:40.604Z,17.30
2023-04-10T04:36:40.516Z,17.90
2023-04-10T04:37:40.517Z,16.00
2023-04-10T04:38:40.491Z,16.80
2023-04-10T04:39:40.516Z,16.90
2023-04-10T04:40:40.519Z,16.70
2023-04-10T04:41:40.484Z,16.70
2023-04-10T04:42:40.499Z,17.50
2023-04-10T04:43:40.447Z,16.60
2023-04-10T04:44:40.452Z,16.70
2023-04-10T04:45:40.496Z,18.20
2023-04-10T04:46:41.967Z,16.60
2023-04-10T04:47:40.425Z,17.20
2023-04-10T04:48:40.439Z,17.70
2023-04-10T04:49:40.377Z,17.20
2023-04-10T04:50:40.375Z,17.10
2023-04-10T04:51:40.386Z,17.20
2023-04-10T04:52:40.365Z,18.20
2023-04-10T04:53:40.335Z,17.90
2023-04-10T04:54:40.338Z,17.80
2023-04-10T04:55:40.316Z,17.00
2023-04-10T04:56:40.301Z,18.00
2023-04-10T04:57:40.316Z,17.00
2023-04-10T04:58:40.305Z,17.70
2023-04-10T04:59:40.264Z,18.20
2023-04-10T05:00:40.271Z,18.20
2023-04-10T05:01:40.360Z,17.80
2023-04-10T05:02:40.355Z,18.30
2023-04-10T05:03:40.367Z,18.30
2023-04-10T05:04:40.234Z,18.00
2023-04-10T05:05:40.199Z,18.80
2023-04-10T05:06:40.227Z,18.30
2023-04-10T05:07:40.205Z,18.20
2023-04-10T05:08:40.166Z,17.30
2023-04-10T05:09:40.180Z,18.50
2023-04-10T05:10:40.138Z,17.40
2023-04-10T05:11:40.127Z,16.90
2023-04-10T05:12:40.131Z,17.20
2023-04-10T05:13:40.159Z,18.50
2023-04-10T05:14:40.141Z,18.00
2023-04-10T05:15:40.196Z,17.70
2023-04-10T05:16:40.087Z,17.30
2023-04-10T05:17:40.148Z,17.80
2023-04-10T05:18:40.117Z,18.00
2023-04-10T05:19:40.058Z,17.90
2023-04-10T05:20:40.011Z,18.00
2023-04-10T05:21:40.023Z,17.90
2023-04-10T05:22:40.006Z,17.90
2023-04-10T05:23:39.968Z,17.60
2023-04-10T05:24:40.032Z,17.90
2023-04-10T05:25:39.997Z,17.90
2023-04-10T05:26:39.940Z,17.50
2023-04-10T05:27:39.986Z,17.90
2023-04-10T05:28:39.948Z,17.60
2023-04-10T05:29:39.924Z,17.30
2023-04-10T05:30:39.984Z,18.50
2023-04-10T05:31:39.940Z,18.40
2023-04-10T05:32:39.984Z,18.50
2023-04-10T05:33:39.888Z,18.20
2023-04-10T05:34:39.881Z,18.50
2023-04-10T05:35:39.917Z,17.80
2023-04-10T05:36:39.854Z,17.80
2023-04-10T05:37:39.863Z,18.30
2023-04-10T05:38:39.839Z,18.40
2023-04-10T05:39:39.837Z,19.00
2023-04-10T05:40:39.825Z,18.30
2023-04-10T05:41:39.833Z,19.00
2023-04-10T05:42:39.794Z,18.30
2023-04-10T05:43:39.823Z,18.70
2023-04-10T05:44:39.780Z,17.90
2023-04-10T05:45:39.761Z,18.90
2023-04-10T05:46:39.834Z,18.70
2023-04-10T05:47:39.772Z,18.30
2023-04-10T05:48:39.729Z,18.10
2023-04-10T05:49:39.746Z,18.90
2023-04-10T05:50:39.756Z,18.40
2023-04-10T05:51:39.758Z,18.60
2023-04-10T05:52:39.711Z,18.90
2023-04-10T05:53:39.679Z,18.70
2023-04-10T05:54:39.668Z,18.40
2023-04-10T05:55:39.685Z,18.90
2023-04-10T05:56:39.641Z,19.00
2023-04-10T05:57:39.669Z,19.00
2023-04-10T05:58:39.651Z,18.60
2023-04-10T05:59:39.598Z,19.80
2023-04-10T06:00:39.580Z,19.10
2023-04-10T06:01:39.677Z,20.70
2023-04-10T06:02:39.880Z,19.90
2023-04-10T06:03:39.734Z,20.60
2023-04-10T06:04:39.796Z,19.80
2023-04-10T06:05:39.668Z,20.50
2023-04-10T06:06:39.513Z,20.80
2023-04-10T06:07:39.509Z,20.20
2023-04-10T06:08:39.507Z,21.10
2023-04-10T06:09:39.517Z,20.60
2023-04-10T06:10:39.474Z,21.30
2023-04-10T06:11:39.483Z,20.60
2023-04-10T06:12:39.473Z,21.80
2023-04-10T06:13:39.460Z,21.00
2023-04-10T06:14:39.443Z,21.60
2023-04-10T06:15:39.471Z,21.60
2023-04-10T06:16:39.565Z,21.40
2023-04-10T06:17:39.438Z,21.60
2023-04-10T06:18:39.456Z,20.70
2023-04-10T06:19:39.398Z,21.70
2023-04-10T06:20:39.361Z,20.50
2023-04-10T06:21:39.414Z,20.90
2023-04-10T06:22:39.351Z,21.30
2023-04-10T06:23:39.333Z,21.00
2023-04-10T06:24:39.389Z,20.00
2023-04-10T06:25:39.360Z,20.70
2023-04-10T06:26:39.315Z,20.10
2023-04-10T06:27:39.323Z,19.90
2023-04-10T06:28:39.344Z,19.10
2023-04-10T06:29:39.321Z,18.60
2023-04-10T06:30:39.316Z,19.20
2023-04-10T06:31:39.314Z,18.30
2023-04-10T06:32:39.291Z,18.90
2023-04-10T06:33:39.279Z,18.20
2023-04-10T06:34:39.262Z,18.50
2023-04-10T06:35:39.221Z,18.30
2023-04-10T06:36:39.234Z,18.70
2023-04-10T06:37:39.212Z,17.60
2023-04-10T06:38:39.236Z,18.10
2023-04-10T06:39:39.225Z,18.10
2023-04-10T06:40:39.183Z,16.80
2023-04-10T06:41:39.434Z,17.30
2023-04-10T06:42:39.150Z,17.40
2023-04-10T06:43:39.132Z,17.10
2023-04-10T06:44:39.136Z,17.90
2023-04-10T06:45:39.157Z,16.80
2023-04-10T06:46:39.161Z,16.90
2023-04-10T06:47:39.128Z,17.20
2023-04-10T06:48:39.098Z,17.40
2023-04-10T06:49:39.075Z,17.00
2023-04-10T06:50:39.086Z,17.40
2023-04-10T06:51:39.048Z,16.50
2023-04-10T06:52:39.058Z,16.70
2023-04-10T06:53:39.042Z,16.80
2023-04-10T06:54:39.228Z,17.00
2023-04-10T06:55:39.010Z,16.50
2023-04-10T06:56:39.012Z,17.60
2023-04-10T06:57:39.005Z,16.80
2023-04-10T06:58:38.969Z,18.00
2023-04-10T06:59:39.031Z,17.00
2023-04-10T07:00:39.003Z,16.50
2023-04-10T07:01:38.948Z,16.00
2023-04-10T07:02:38.982Z,16.50
2023-04-10T07:03:38.975Z,16.70
2023-04-10T07:04:38.937Z,16.80
2023-04-10T07:05:40.800Z,16.10
2023-04-10T07:06:38.898Z,16.20
2023-04-10T07:07:38.883Z,16.10
2023-04-10T07:08:38.898Z,16.30
2023-04-10T07:09:38.916Z,15.20
2023-04-10T07:10:38.844Z,16.20
2023-04-10T07:11:38.887Z,16.10
2023-04-10T07:12:38.812Z,15.60
2023-04-10T07:13:38.844Z,17.10
2023-04-10T07:14:38.830Z,15.90
2023-04-10T07:15:38.820Z,16.10
2023-04-10T07:16:38.879Z,16.00
2023-04-10T07:17:38.924Z,15.80
2023-04-10T07:18:38.803Z,15.60
2023-04-10T07:19:38.778Z,15.80
2023-04-10T07:20:38.758Z,16.30
2023-04-10T07:21:38.726Z,15.90
2023-04-10T07:22:38.707Z,15.40
2023-04-10T07:23:38.679Z,16.00
2023-04-10T07:24:38.717Z,16.50
2023-04-10T07:25:38.688Z,15.50
2023-04-10T07:26:38.688Z,15.60
2023-04-10T07:27:38.703Z,15.30
2023-04-10T07:28:38.658Z,15.20
2023-04-10T07:29:38.660Z,16.10
2023-04-10T07:30:38.678Z,15.70
2023-04-10T07:31:38.776Z,15.70
2023-04-10T07:32:38.756Z,16.00
2023-04-10T07:33:38.652Z,15.70
2023-04-10T07:34:38.616Z,16.10
2023-04-10T07:35:38.598Z,15.40
2023-04-10T07:36:38.704Z,15.00
2023-04-10T07:37:38.628Z,15.60
2023-04-10T07:38:38.620Z,15.50
2023-04-10T07:39:38.530Z,15.90
2023-04-10T07:40:38.522Z,15.60
2023-04-10T07:41:38.512Z,15.20
2023-04-10T07:42:38.506Z,14.90
2023-04-10T07:43:38.811Z,14.80
2023-04-10T07:44:38.459Z,15.00
2023-04-10T07:45:38.642Z,16.10
2023-04-10T07:46:38.842Z,15.50
2023-04-10T07:47:38.497Z,15.60
2023-04-10T07:48:38.432Z,14.80
2023-04-10T07:49:44.564Z,15.20
2023-04-10T07:50:38.375Z,14.50
2023-04-10T07:51:38.395Z,15.20
2023-04-10T07:52:38.391Z,15.40
2023-04-10T07:53:38.382Z,15.40
2023-04-10T07:54:38.380Z,15.50
2023-04-10T07:55:38.466Z,15.10
2023-04-10T07:56:38.376Z,15.00
2023-04-10T07:57:39.353Z,15.10
2023-04-10T07:58:38.410Z,14.60
2023-04-10T07:59:38.372Z,14.80
2023-04-10T08:00:38.422Z,15.00
2023-04-10T08:01:38.438Z,14.90
2023-04-10T08:02:38.430Z,14.90
2023-04-10T08:03:38.409Z,15.10
2023-04-10T08:04:38.490Z,15.10
2023-04-10T08:05:38.296Z,14.00
2023-04-10T08:06:38.676Z,14.20
2023-04-10T08:07:38.603Z,14.80
2023-04-10T08:08:38.228Z,14.60
2023-04-10T08:09:38.289Z,14.40
2023-04-10T08:10:38.223Z,14.30
2023-04-10T08:11:38.730Z,14.60
2023-04-10T08:12:38.201Z,14.40
2023-04-10T08:13:38.337Z,14.70
2023-04-10T08:14:38.169Z,14.40
2023-04-10T08:15:38.184Z,14.50
2023-04-10T08:16:38.174Z,14.60
2023-04-10T08:17:38.189Z,14.60
2023-04-10T08:18:38.151Z,14.70
2023-04-10T08:19:38.129Z,14.80
2023-04-10T08:20:38.116Z,13.90
2023-04-10T08:21:38.119Z,14.40
2023-04-10T08:22:38.066Z,15.30
2023-04-10T08:23:38.074Z,14.40
2023-04-10T08:24:38.073Z,14.80
2023-04-10T08:25:38.091Z,15.00
2023-04-10T08:26:38.053Z,14.60
2023-04-10T08:27:38.110Z,14.30
2023-04-10T08:28:37.989Z,14.60
2023-04-10T08:29:38.010Z,14.30
2023-04-10T08:30:38.034Z,14.80
2023-04-10T08:31:37.956Z,15.10
2023-04-10T08:32:38.046Z,13.80
2023-04-10T08:33:38.004Z,14.40
2023-04-10T08:34:37.947Z,14.10
2023-04-10T08:35:38.047Z,15.40
2023-04-10T08:36:38.873Z,14.60
2023-04-10T08:37:37.898Z,13.60
2023-04-10T08:38:37.981Z,13.40
2023-04-10T08:39:38.088Z,13.50
2023-04-10T08:40:37.883Z,12.50
2023-04-10T08:41:37.973Z,13.20
2023-04-10T08:42:37.832Z,11.70
2023-04-10T08:43:37.929Z,11.90
2023-04-10T08:44:37.841Z,11.90
2023-04-10T08:45:37.826Z,12.60
2023-04-10T08:46:37.851Z,12.20
2023-04-10T08:47:37.826Z,11.60
2023-04-10T08:48:37.802Z,10.70
2023-04-10T08:49:37.829Z,10.90
2023-04-10T08:50:37.768Z,11.00
2023-04-10T08:51:37.763Z,10.80
2023-04-10T08:52:37.738Z,10.50
2023-04-10T08:53:37.775Z,10.60
2023-04-10T08:54:37.726Z,10.60
2023-04-10T08:55:37.737Z,9.80
2023-04-10T08:56:37.782Z,10.20
2023-04-10T08:57:38.972Z,9.50
2023-04-10T08:58:37.652Z,9.90
2023-04-10T08:59:37.674Z,10.00
2023-04-10T09:00:37.685Z,9.80
2023-04-10T09:01:37.885Z,9.80
2023-04-10T09:02:39.176Z,10.00
2023-04-10T09:03:37.784Z,10.00
2023-04-10T09:04:37.765Z,9.60
2023-04-10T09:05:37.761Z,9.60
2023-04-10T09:06:38.029Z,9.70
2023-04-10T09:07:37.783Z,9.30
2023-04-10T09:08:37.563Z,9.40
2023-04-10T09:09:37.574Z,9.90
2023-04-10T09:10:37.578Z,9.30
2023-04-10T09:11:37.586Z,9.90
2023-04-10T09:12:37.512Z,8.80
2023-04-10T09:13:37.456Z,9.60
2023-04-10T09:14:37.446Z,9.40
2023-04-10T09:15:37.447Z,9.50
2023-04-10T09:16:37.438Z,10.10
2023-04-10T09:17:37.486Z,9.30
2023-04-10T09:18:37.418Z,8.80
2023-04-10T09:19:37.381Z,8.50
2023-04-10T09:20:37.385Z,9.00
2023-04-10T09:21:37.358Z,8.80
2023-04-10T09:22:37.378Z,8.50
2023-04-10T09:23:37.361Z,8.20
2023-04-10T09:24:37.347Z,8.40
2023-04-10T09:25:37.309Z,8.30
2023-04-10T09:26:37.320Z,8.70
2023-04-10T09:27:37.374Z,8.70
2023-04-10T09:28:37.307Z,8.00
2023-04-10T09:29:37.274Z,7.90
2023-04-10T09:30:37.319Z,9.40
2023-04-10T09:31:37.333Z,8.80
2023-04-10T09:32:37.295Z,8.50
2023-04-10T09:33:37.239Z,8.50
2023-04-10T09:34:37.213Z,9.30
2023-04-10T09:35:37.208Z,9.30
2023-04-10T09:36:37.311Z,8.90
2023-04-10T09:37:37.225Z,8.70
2023-04-10T09:38:37.483Z,8.20
2023-04-10T09:39:37.227Z,8.20
2023-04-10T09:40:37.186Z,8.80
2023-04-10T09:41:37.185Z,8.60
2023-04-10T09:42:37.171Z,9.20
2023-04-10T09:43:37.152Z,8.60
2023-04-10T09:44:37.160Z,9.20
2023-04-10T09:45:37.144Z,9.50
2023-04-10T09:46:37.157Z,9.10
2023-04-10T09:47:37.105Z,9.40
2023-04-10T09:48:37.080Z,8.90
2023-04-10T09:49:37.122Z,8.70
2023-04-10T09:50:39.596Z,9.20
2023-04-10T09:51:37.085Z,8.70
2023-04-10T09:52:37.064Z,9.10
2023-04-10T09:53:37.261Z,9.00
2023-04-10T09:54:37.141Z,9.50
2023-04-10T09:55:37.054Z,9.50
2023-04-10T09:56:37.025Z,9.30
2023-04-10T09:57:37.178Z,8.90
2023-04-10T09:58:36.973Z,8.60
2023-04-10T09:59:36.961Z,9.10
2023-04-10T10:00:36.963Z,8.40
2023-04-10T10:01:37.042Z,9.10
2023-04-10T10:02:37.565Z,8.50
2023-04-10T10:03:37.079Z,8.40
2023-04-10T10:04:37.016Z,8.70
2023-04-10T10:05:36.966Z,8.70
2023-04-10T10:06:36.893Z,8.60
2023-04-10T10:07:36.913Z,9.00
2023-04-10T10:08:36.875Z,9.20
2023-04-10T10:09:36.873Z,8.50
2023-04-10T10:10:36.925Z,9.10
2023-04-10T10:11:36.877Z,9.30
2023-04-10T10:12:36.841Z,8.90
2023-04-10T10:13:36.899Z,9.00
2023-04-10T10:14:37.740Z,8.80
2023-04-10T10:15:36.839Z,8.80
2023-04-10T10:16:36.934Z,9.30
2023-04-10T10:17:36.861Z,9.20
2023-04-10T10:18:36.786Z,9.70
2023-04-10T10:19:36.790Z,9.10
2023-04-10T10:20:36.958Z,10.40
2023-04-10T10:21:36.788Z,9.80
2023-04-10T10:22:36.761Z,9.70
2023-04-10T10:23:36.972Z,10.30
2023-04-10T10:24:36.848Z,10.00
2023-04-10T10:25:36.729Z,9.90
2023-04-10T10:26:37.053Z,10.30
2023-04-10T10:27:36.702Z,9.50
2023-04-10T10:28:36.712Z,9.10
2023-04-10T10:29:36.678Z,9.30
2023-04-10T10:30:36.762Z,9.10
2023-04-10T10:31:36.998Z,9.10
2023-04-10T10:32:36.837Z,8.60
2023-04-10T10:33:36.657Z,8.40
2023-04-10T10:34:36.624Z,9.20
2023-04-10T10:35:36.675Z,9.30
2023-04-10T10:36:36.670Z,8.70
2023-04-10T10:37:36.606Z,8.90
2023-04-10T10:38:36.595Z,8.70
2023-04-10T10:39:36.668Z,8.90
2023-04-10T10:40:36.539Z,8.60
2023-04-10T10:41:36.525Z,8.50
2023-04-10T10:42:36.604Z,9.00
2023-04-10T10:43:36.544Z,8.40
2023-04-10T10:44:36.691Z,9.00
2023-04-10T10:45:36.614Z,8.70
2023-04-10T10:46:36.511Z,9.10
2023-04-10T10:47:36.579Z,8.70
2023-04-10T10:48:36.454Z,8.70
2023-04-10T10:49:36.466Z,9.30
2023-04-10T10:50:36.474Z,8.60
2023-04-10T10:51:36.478Z,8.30
2023-04-10T10:52:36.475Z,9.10
2023-04-10T10:53:36.412Z,8.60
2023-04-10T10:54:42.186Z,9.50
2023-04-10T10:55:37.389Z,9.90
2023-04-10T10:56:36.373Z,9.50
2023-04-10T10:57:36.369Z,9.30
2023-04-10T10:58:36.397Z,9.80
2023-04-10T10:59:36.331Z,9.50
2023-04-10T11:00:36.338Z,9.30
2023-04-10T11:01:36.417Z,8.90
2023-04-10T11:02:36.466Z,9.50
2023-04-10T11:03:36.380Z,10.80
2023-04-10T11:04:36.262Z,11.40
2023-04-10T11:05:36.256Z,11.80
2023-04-10T11:06:36.251Z,12.10
2023-04-10T11:07:36.257Z,12.70
2023-04-10T11:08:36.300Z,12.20
2023-04-10T11:09:36.296Z,12.00
2023-04-10T11:10:36.535Z,11.80
2023-04-10T11:11:36.499Z,11.90
2023-04-10T11:12:37.391Z,11.40
2023-04-10T11:13:36.203Z,11.00
2023-04-10T11:14:36.209Z,10.60
2023-04-10T11:15:36.160Z,10.40
2023-04-10T11:16:36.220Z,10.70
2023-04-10T11:17:36.243Z,10.10
2023-04-10T11:18:36.149Z,10.40
2023-04-10T11:19:36.143Z,10.00
2023-04-10T11:20:36.116Z,9.60
2023-04-10T11:21:36.133Z,9.10
2023-04-10T11:22:36.109Z,9.10
2023-04-10T11:23:36.103Z,8.20
2023-04-10T11:24:36.274Z,8.50
2023-04-10T11:25:36.176Z,8.60
2023-04-10T11:26:36.049Z,8.70
2023-04-10T11:27:36.095Z,8.20
2023-04-10T11:28:36.029Z,8.50
2023-04-10T11:29:36.116Z,8.50
2023-04-10T11:30:36.179Z,8.00
2023-04-10T11:31:36.316Z,8.50
2023-04-10T11:32:36.689Z,7.70
2023-04-10T11:33:36.212Z,7.60
2023-04-10T11:34:37.717Z,7.90
2023-04-10T11:37:06.403Z,7.60
2023-04-10T11:38:07.000Z,7.80
2023-04-10T11:39:06.379Z,7.60
2023-04-10T11:40:06.702Z,7.60
2023-04-10T11:41:06.992Z,7.90
2023-04-10T11:45:25.579Z,7.90
2023-04-10T11:46:25.470Z,8.20
2023-04-10T11:47:25.363Z,8.70
2023-04-10T11:48:25.124Z,7.90
2023-04-10T11:49:25.196Z,8.30
2023-04-10T11:50:25.275Z,8.10
2023-04-10T11:51:25.189Z,7.80
2023-04-10T11:52:25.097Z,7.60
2023-04-10T11:53:25.125Z,8.00
2023-04-10T11:54:25.166Z,8.00
2023-04-10T11:55:25.061Z,8.80
2023-04-10T11:56:25.983Z,8.70
2023-04-10T11:57:25.068Z,8.30
2023-04-10T11:58:25.131Z,8.00
2023-04-10T11:59:25.031Z,7.80
2023-04-10T12:00:25.053Z,7.50
2023-04-10T12:01:25.025Z,8.40
2023-04-10T12:02:25.156Z,8.40
2023-04-10T12:03:25.161Z,7.50
2023-04-10T12:04:25.254Z,7.60
2023-04-10T12:05:24.994Z,8.20
2023-04-10T12:06:24.945Z,8.10
2023-04-10T12:07:24.919Z,7.60
2023-04-10T12:08:24.999Z,7.90
2023-04-10T12:09:24.942Z,8.30
2023-04-10T12:10:24.926Z,8.40
2023-04-10T12:11:24.908Z,7.70
2023-04-10T12:12:24.872Z,7.60
2023-04-10T12:13:24.859Z,7.90
2023-04-10T12:14:24.863Z,8.00
2023-04-10T12:15:24.969Z,7.60
2023-04-10T12:16:24.925Z,7.70
2023-04-10T12:17:24.852Z,8.10
2023-04-10T12:18:24.811Z,7.50
2023-04-10T12:19:24.820Z,6.80
2023-04-10T12:20:24.792Z,7.40
2023-04-10T12:21:24.791Z,7.20
2023-04-10T12:22:24.798Z,7.40
2023-04-10T12:23:24.746Z,7.20
2023-04-10T12:24:24.809Z,7.70
2023-04-10T12:25:24.773Z,7.30
2023-04-10T12:26:24.763Z,7.30
2023-04-10T12:27:24.727Z,7.10
2023-04-10T12:28:24.752Z,7.30
2023-04-10T12:29:24.694Z,7.40
2023-04-10T12:30:24.688Z,7.00
2023-04-10T12:31:24.774Z,6.60
2023-04-10T12:32:24.711Z,6.90
2023-04-10T12:33:24.670Z,7.50
2023-04-10T12:34:24.689Z,6.80
2023-04-10T12:35:24.626Z,7.10
2023-04-10T12:36:24.624Z,6.40
2023-04-10T12:37:24.683Z,6.70
2023-04-10T12:38:24.622Z,6.60
2023-04-10T12:39:24.621Z,6.70
2023-04-10T12:40:24.575Z,6.70
2023-04-10T12:41:24.603Z,7.00
2023-04-10T12:42:24.575Z,6.90
2023-04-10T12:43:24.551Z,6.70
2023-04-10T12:44:24.606Z,6.40
2023-04-10T12:45:24.543Z,6.70
2023-04-10T12:46:24.612Z,6.40
2023-04-10T12:47:24.599Z,6.20
2023-04-10T12:48:24.510Z,6.00
2023-04-10T12:49:24.481Z,6.20
2023-04-10T12:50:24.535Z,6.10
2023-04-10T12:51:24.588Z,6.50
2023-04-10T12:52:24.538Z,6.50
2023-04-10T12:53:24.472Z,6.20
2023-04-10T12:54:24.415Z,6.10
2023-04-10T12:55:24.434Z,6.00
2023-04-10T12:56:24.386Z,5.50
2023-04-10T12:57:24.379Z,6.50
2023-04-10T12:58:24.444Z,5.80
2023-04-10T12:59:24.732Z,6.20
2023-04-10T13:00:24.389Z,6.10
2023-04-10T13:01:24.381Z,6.20
2023-04-10T13:02:24.441Z,6.00
2023-04-10T13:03:24.598Z,5.60
2023-04-10T13:04:24.483Z,5.70